Crosby Wave — WDH3388 — position and weather

sailwx.info

Track history (hours):
 
Tides and Currents Weather Stations Pressure Air Temp Water Temp Dewpoint Dewpoint Depression Visibility Wind Speed Wind Dir Waves Ship Positions

Crosby Wave

Owner: Crosby Marine Transportation, LLC, Galliano, LA. More information available from US FCC via Universal Licensing System and Coast Guard Vessel Documentation Center.

Last reported at 2017-Dec-11 05:25 UTC. Time now 2017-Dec-11 05:51 UTC.
Position N 36°50' W 076°16'.

; draft 3.8 m.

Type: Towing. MMSI: 367126540.

Date/timePositionNaut miles runAvg speedWind from/ knotsBaromVisibWave heightAir tempDewpointWater temp
2017-Dec-11 05:25N 36°50' W 076°16'0 0.0
2017-Dec-11 04:55N 36°50' W 076°16'0 0.0
2017-Dec-11 04:25N 36°50' W 076°16'0 0.0
2017-Dec-11 03:55N 36°50' W 076°16'0 0.0
2017-Dec-11 02:25N 36°50' W 076°16'0 0.0
2017-Dec-11 01:55N 36°50' W 076°16'0 0.0
2017-Dec-11 01:13N 36°50' W 076°16'0 0.0
2017-Dec-11 00:43N 36°50' W 076°16'0 0.0
2017-Dec-11 00:25N 36°50' W 076°16'0 0.0
2017-Dec-10 23:55N 36°50' W 076°16'0 0.0
2017-Dec-10 23:25N 36°50' W 076°16'0 0.0
2017-Dec-10 21:07N 36°50' W 076°16'0 0.0
2017-Dec-10 20:55N 36°50' W 076°16'0 0.0
2017-Dec-10 19:13N 36°50' W 076°16'1 2.4
2017-Dec-10 19:01N 36°50' W 076°17'4 7.1
2017-Dec-10 18:30N 36°53' W 076°20'4 1.1
2017-Dec-10 14:45N 36°57' W 076°22'2 7.2
2017-Dec-10 14:30N 36°56' W 076°20'4 8.8
2017-Dec-10 14:00N 36°51' W 076°19'2 4.2
2017-Dec-10 13:26N 36°50' W 076°16'0 0.0
2017-Dec-10 12:59N 36°50' W 076°16'0 0.0
2017-Dec-10 12:16N 36°50' W 076°16'0 0.0
2017-Dec-10 11:55N 36°50' W 076°16'0 0.0
2017-Dec-10 11:13N 36°50' W 076°16'0 0.0
2017-Dec-10 10:43N 36°50' W 076°16'0 0.0
2017-Dec-10 10:25N 36°50' W 076°16'0 0.0
2017-Dec-10 09:52N 36°50' W 076°16'0 0.0
2017-Dec-10 09:25N 36°50' W 076°16'0 0.0
2017-Dec-10 08:55N 36°50' W 076°16'0 0.0
2017-Dec-10 08:25N 36°50' W 076°16'0 0.0
2017-Dec-10 07:58N 36°50' W 076°16'0 0.2
2017-Dec-10 07:25N 36°50' W 076°16'0 0.5
2017-Dec-10 07:01N 36°50' W 076°16'3 5.3
2017-Dec-10 06:31N 36°52' W 076°19'1 2.9
2017-Dec-10 06:00N 36°53' W 076°20'118 6.8
2017-Dec-09 12:33N 38°51' W 076°25'1 6.5
2017-Dec-09 12:20N 38°53' W 076°25'2 7.1
2017-Dec-09 11:59N 38°55' W 076°24'4 7.3
2017-Dec-09 11:30N 38°59' W 076°23'4 7.5
2017-Dec-09 11:00N 39°02' W 076°22'4 7.3
2017-Dec-09 10:30N 39°06' W 076°20'4 7.1
2017-Dec-09 10:00N 39°09' W 076°19'4 7.5
2017-Dec-09 09:30N 39°12' W 076°16'4 7.5
2017-Dec-09 09:00N 39°15' W 076°14'4 7.4
2017-Dec-09 08:30N 39°19' W 076°13'4 7.7
2017-Dec-09 08:00N 39°21' W 076°09'4 7.9
2017-Dec-09 07:30N 39°23' W 076°05'4 7.9
2017-Dec-09 07:00N 39°26' W 076°01'3 5.5
2017-Dec-09 06:30N 39°28' W 075°58'4 7.2
2017-Dec-09 06:00N 39°30' W 075°55'3 6.6
2017-Dec-09 05:30N 39°32' W 075°51'3 6.0
2017-Dec-09 05:01N 39°32' W 075°47'3 6.1
2017-Dec-09 04:31N 39°33' W 075°43'3 5.3
2017-Dec-09 04:01N 39°33' W 075°40'3 5.3
2017-Dec-09 03:30N 39°33' W 075°36'3 5.6
2017-Dec-09 03:00N 39°34' W 075°33'4 8.8
2017-Dec-09 02:31N 39°39' W 075°33'5 9.9
2017-Dec-09 02:00N 39°43' W 075°30'1 1.9
2017-Dec-09 01:30N 39°44' W 075°29'0 0.2
2017-Dec-09 01:01N 39°44' W 075°29'3 6.9
2017-Dec-09 00:31N 39°41' W 075°32'4 7.7
2017-Dec-09 00:00N 39°38' W 075°34'4 7.7
2017-Dec-08 23:30N 39°34' W 075°33'4 8.0
2017-Dec-08 23:00N 39°30' W 075°33'4 7.9
2017-Dec-08 22:30N 39°26' W 075°32'4 8.7
2017-Dec-08 22:00N 39°23' W 075°28'4 8.9
2017-Dec-08 21:30N 39°20' W 075°25'5 9.1
2017-Dec-08 21:00N 39°16' W 075°21'5 9.3
2017-Dec-08 20:30N 39°12' W 075°17'4 8.8
2017-Dec-08 20:00N 39°09' W 075°14'5 9.3
2017-Dec-08 19:30N 39°05' W 075°11'2 0.1
2017-Dec-07 20:11N 39°03' W 075°10'1 5.3
2017-Dec-07 19:58N 39°04' W 075°10'3 4.8
2017-Dec-07 19:15N 39°07' W 075°13'2 4.4
2017-Dec-07 18:45N 39°09' W 075°14'1 3.7
2017-Dec-07 18:30N 39°09' W 075°15'2 3.2
2017-Dec-07 18:00N 39°11' W 075°16'1 2.6
2017-Dec-07 17:30N 39°12' W 075°17'1 2.3
2017-Dec-07 17:00N 39°13' W 075°18'1 1.6
2017-Dec-07 16:27N 39°14' W 075°18'1 1.9
2017-Dec-07 15:57N 39°14' W 075°19'1 2.0
2017-Dec-07 15:30N 39°15' W 075°19'1 2.3
2017-Dec-07 15:00N 39°16' W 075°20'2 3.4
2017-Dec-07 14:30N 39°17' W 075°22'2 3.9
2017-Dec-07 14:00N 39°19' W 075°24'3 5.4
2017-Dec-07 13:29N 39°21' W 075°26'3 5.3
2017-Dec-07 13:00N 39°23' W 075°28'4 7.1
2017-Dec-07 12:30N 39°25' W 075°31'3 5.2
2017-Dec-07 12:00N 39°27' W 075°34'3 5.1
2017-Dec-07 11:30N 39°30' W 075°34'2 4.6
2017-Dec-07 11:00N 39°32' W 075°33'2 4.6
2017-Dec-07 10:31N 39°34' W 075°33'2 4.6
2017-Dec-07 10:00N 39°36' W 075°34'2 3.9
2017-Dec-07 09:30N 39°38' W 075°34'2 4.0
2017-Dec-07 09:00N 39°40' W 075°32'2 3.9
2017-Dec-07 08:30N 39°42' W 075°31'2 3.1
2017-Dec-07 08:00N 39°43' W 075°30'1 1.8
2017-Dec-07 07:30N 39°44' W 075°29'0 0.1
2017-Dec-07 07:00N 39°44' W 075°29'2 3.8
2017-Dec-07 06:29N 39°43' W 075°32'0 0.0
2017-Dec-07 05:09N 39°43' W 075°32'0 0.0
2017-Dec-07 03:50N 39°43' W 075°32'0 0.2
2017-Dec-07 03:28N 39°43' W 075°32'1 1.9
2017-Dec-07 03:00N 39°43' W 075°31'3 6.8
2017-Dec-07 02:31N 39°40' W 075°32'3 6.6
2017-Dec-07 02:01N 39°37' W 075°35'3 6.3
2017-Dec-07 01:31N 39°34' W 075°33'5 9.5
2017-Dec-07 01:00N 39°33' W 075°40'4 9.0
2017-Dec-07 00:30N 39°32' W 075°45'4 7.1
2017-Dec-07 00:00N 39°32' W 075°50'4 8.4
2017-Dec-06 23:31N 39°30' W 075°55'4 8.2
2017-Dec-06 23:01N 39°27' W 075°59'1 1.1
2017-Dec-06 21:52N 39°26' W 075°60'0 0.2
2017-Dec-06 21:29N 39°26' W 075°60'0 0.4
2017-Dec-06 20:58N 39°26' W 076°00'  
2017-Dec-04 08:04N 39°19' W 076°13'0 0.0
2017-Dec-04 04:26N 39°19' W 076°13'0 0.4
2017-Dec-04 03:10N 39°19' W 076°12'0 0.0
2017-Dec-04 02:49N 39°19' W 076°12'0 0.0
2017-Dec-04 00:11N 39°19' W 076°12'0 0.8
2017-Dec-03 23:48N 39°20' W 076°12'0 0.2
2017-Dec-03 22:35N 39°20' W 076°12'0 0.4
2017-Dec-03 22:23N 39°20' W 076°12'0 0.0
2017-Dec-03 15:29N 39°19' W 076°12'0 0.1
2017-Dec-03 13:09N 39°19' W 076°13'0 0.0
2017-Dec-03 11:28N 39°19' W 076°13'0 0.0
2017-Dec-03 10:57N 39°19' W 076°13'0 0.4
2017-Dec-03 10:12N 39°19' W 076°12'0 0.8
2017-Dec-03 09:52N 39°19' W 076°13'0 0.0
2017-Dec-03 09:30N 39°19' W 076°13'0 0.1
2017-Dec-03 06:35N 39°19' W 076°12'0 0.0
2017-Dec-02 21:28N 39°20' W 076°12'0 0.1
2017-Dec-02 16:01N 39°19' W 076°12'0 0.9
2017-Dec-02 15:44N 39°19' W 076°13'0 0.0
2017-Dec-02 08:50N 39°19' W 076°13'0 0.0
2017-Dec-02 08:25N 39°19' W 076°13'0 0.1
2017-Dec-02 07:46N 39°19' W 076°13'0 0.0
2017-Dec-02 05:04N 39°19' W 076°13'0 0.0
2017-Dec-02 04:53N 39°19' W 076°13'0 0.0
2017-Dec-02 04:23N 39°19' W 076°13'0 0.0
2017-Dec-02 00:30N 39°19' W 076°13'0 0.0
2017-Dec-01 23:36N 39°19' W 076°13'0 0.0
2017-Dec-01 22:48N 39°19' W 076°13'0 0.0
2017-Dec-01 22:24N 39°19' W 076°13'0 0.0
2017-Dec-01 17:41N 39°19' W 076°13'1 6.4
2017-Dec-01 17:30N 39°20' W 076°12'3 6.5
2017-Dec-01 17:01N 39°22' W 076°08'6 6.6
2017-Dec-01 16:03N 39°25' W 076°01'0 6.7
2017-Dec-01 16:01N 39°25' W 076°01'1 2.2
2017-Dec-01 15:20N 39°27' W 075°60'0 0.1
2017-Dec-01 15:00N 39°27' W 075°60'0 0.3
2017-Dec-01 14:28N 39°27' W 075°59'0 0.0
2017-Dec-01 13:58N 39°27' W 075°59'0 0.0
2017-Dec-01 13:28N 39°27' W 075°59'0 0.0
2017-Dec-01 12:58N 39°27' W 075°59'0 0.0
2017-Dec-01 12:28N 39°27' W 075°59'0 0.0
2017-Dec-01 11:59N 39°27' W 075°59'0 0.0
2017-Dec-01 11:26N 39°27' W 075°59'0 0.0
2017-Dec-01 10:59N 39°27' W 075°59'0 0.0
2017-Dec-01 10:29N 39°27' W 075°59'0 0.0
2017-Dec-01 09:59N 39°27' W 075°59'0 0.0
2017-Dec-01 09:29N 39°27' W 075°59'0 0.0
2017-Dec-01 08:59N 39°27' W 075°59'0 0.0
2017-Dec-01 08:29N 39°27' W 075°59'0 0.0
2017-Dec-01 07:59N 39°27' W 075°59'0 0.0
2017-Dec-01 07:29N 39°27' W 075°59'0 0.0
2017-Dec-01 06:59N 39°27' W 075°59'0 0.0
2017-Dec-01 06:29N 39°27' W 075°59'0 0.0
2017-Dec-01 05:59N 39°27' W 075°59'0 0.0
2017-Dec-01 05:29N 39°27' W 075°59'  
Track history (hours):
 
Tides and Currents Weather Stations Pressure Air Temp Water Temp Dewpoint Dewpoint Depression Visibility Wind Speed Wind Dir Waves Ship Positions

Crosby Wave

Owner: Crosby Marine Transportation, LLC, Galliano, LA. More information available from US FCC via Universal Licensing System and Coast Guard Vessel Documentation Center.

Last reported at 2017-Dec-11 05:25 UTC. Time now 2017-Dec-11 05:51 UTC.
Position N 36°50' W 076°16'.

; draft 3.8 m.

Type: Towing. MMSI: 367126540.

Date/timePositionNaut miles runAvg speedWind from/ knotsBaromVisibWave heightAir tempDewpointWater temp
2017-Dec-11 05:25N 36°50' W 076°16'0 0.0
2017-Dec-11 04:55N 36°50' W 076°16'0 0.0
2017-Dec-11 04:25N 36°50' W 076°16'0 0.0
2017-Dec-11 03:55N 36°50' W 076°16'0 0.0
2017-Dec-11 02:25N 36°50' W 076°16'0 0.0
2017-Dec-11 01:55N 36°50' W 076°16'0 0.0
2017-Dec-11 01:13N 36°50' W 076°16'0 0.0
2017-Dec-11 00:43N 36°50' W 076°16'0 0.0
2017-Dec-11 00:25N 36°50' W 076°16'0 0.0
2017-Dec-10 23:55N 36°50' W 076°16'0 0.0
2017-Dec-10 23:25N 36°50' W 076°16'0 0.0
2017-Dec-10 21:07N 36°50' W 076°16'0 0.0
2017-Dec-10 20:55N 36°50' W 076°16'0 0.0
2017-Dec-10 19:13N 36°50' W 076°16'1 2.4
2017-Dec-10 19:01N 36°50' W 076°17'4 7.1
2017-Dec-10 18:30N 36°53' W 076°20'4 1.1
2017-Dec-10 14:45N 36°57' W 076°22'2 7.2
2017-Dec-10 14:30N 36°56' W 076°20'4 8.8
2017-Dec-10 14:00N 36°51' W 076°19'2 4.2
2017-Dec-10 13:26N 36°50' W 076°16'0 0.0
2017-Dec-10 12:59N 36°50' W 076°16'0 0.0
2017-Dec-10 12:16N 36°50' W 076°16'0 0.0
2017-Dec-10 11:55N 36°50' W 076°16'0 0.0
2017-Dec-10 11:13N 36°50' W 076°16'0 0.0
2017-Dec-10 10:43N 36°50' W 076°16'0 0.0
2017-Dec-10 10:25N 36°50' W 076°16'0 0.0
2017-Dec-10 09:52N 36°50' W 076°16'0 0.0
2017-Dec-10 09:25N 36°50' W 076°16'0 0.0
2017-Dec-10 08:55N 36°50' W 076°16'0 0.0
2017-Dec-10 08:25N 36°50' W 076°16'0 0.0
2017-Dec-10 07:58N 36°50' W 076°16'0 0.2
2017-Dec-10 07:25N 36°50' W 076°16'0 0.5
2017-Dec-10 07:01N 36°50' W 076°16'3 5.3
2017-Dec-10 06:31N 36°52' W 076°19'1 2.9
2017-Dec-10 06:00N 36°53' W 076°20'118 6.8
2017-Dec-09 12:33N 38°51' W 076°25'1 6.5
2017-Dec-09 12:20N 38°53' W 076°25'2 7.1
2017-Dec-09 11:59N 38°55' W 076°24'4 7.3
2017-Dec-09 11:30N 38°59' W 076°23'4 7.5
2017-Dec-09 11:00N 39°02' W 076°22'4 7.3
2017-Dec-09 10:30N 39°06' W 076°20'4 7.1
2017-Dec-09 10:00N 39°09' W 076°19'4 7.5
2017-Dec-09 09:30N 39°12' W 076°16'4 7.5
2017-Dec-09 09:00N 39°15' W 076°14'4 7.4
2017-Dec-09 08:30N 39°19' W 076°13'4 7.7
2017-Dec-09 08:00N 39°21' W 076°09'4 7.9
2017-Dec-09 07:30N 39°23' W 076°05'4 7.9
2017-Dec-09 07:00N 39°26' W 076°01'3 5.5
2017-Dec-09 06:30N 39°28' W 075°58'4 7.2
2017-Dec-09 06:00N 39°30' W 075°55'3 6.6
2017-Dec-09 05:30N 39°32' W 075°51'3 6.0
2017-Dec-09 05:01N 39°32' W 075°47'3 6.1
2017-Dec-09 04:31N 39°33' W 075°43'3 5.3
2017-Dec-09 04:01N 39°33' W 075°40'3 5.3
2017-Dec-09 03:30N 39°33' W 075°36'3 5.6
2017-Dec-09 03:00N 39°34' W 075°33'4 8.8
2017-Dec-09 02:31N 39°39' W 075°33'5 9.9
2017-Dec-09 02:00N 39°43' W 075°30'1 1.9
2017-Dec-09 01:30N 39°44' W 075°29'0 0.2
2017-Dec-09 01:01N 39°44' W 075°29'3 6.9
2017-Dec-09 00:31N 39°41' W 075°32'4 7.7
2017-Dec-09 00:00N 39°38' W 075°34'4 7.7
2017-Dec-08 23:30N 39°34' W 075°33'4 8.0
2017-Dec-08 23:00N 39°30' W 075°33'4 7.9
2017-Dec-08 22:30N 39°26' W 075°32'4 8.7
2017-Dec-08 22:00N 39°23' W 075°28'4 8.9
2017-Dec-08 21:30N 39°20' W 075°25'5 9.1
2017-Dec-08 21:00N 39°16' W 075°21'5 9.3
2017-Dec-08 20:30N 39°12' W 075°17'4 8.8
2017-Dec-08 20:00N 39°09' W 075°14'5 9.3
2017-Dec-08 19:30N 39°05' W 075°11'2 0.1
2017-Dec-07 20:11N 39°03' W 075°10'1 5.3
2017-Dec-07 19:58N 39°04' W 075°10'3 4.8
2017-Dec-07 19:15N 39°07' W 075°13'2 4.4
2017-Dec-07 18:45N 39°09' W 075°14'1 3.7
2017-Dec-07 18:30N 39°09' W 075°15'2 3.2
2017-Dec-07 18:00N 39°11' W 075°16'1 2.6
2017-Dec-07 17:30N 39°12' W 075°17'1 2.3
2017-Dec-07 17:00N 39°13' W 075°18'1 1.6
2017-Dec-07 16:27N 39°14' W 075°18'1 1.9
2017-Dec-07 15:57N 39°14' W 075°19'1 2.0
2017-Dec-07 15:30N 39°15' W 075°19'1 2.3
2017-Dec-07 15:00N 39°16' W 075°20'2 3.4
2017-Dec-07 14:30N 39°17' W 075°22'2 3.9
2017-Dec-07 14:00N 39°19' W 075°24'3 5.4
2017-Dec-07 13:29N 39°21' W 075°26'3 5.3
2017-Dec-07 13:00N 39°23' W 075°28'4 7.1
2017-Dec-07 12:30N 39°25' W 075°31'3 5.2
2017-Dec-07 12:00N 39°27' W 075°34'3 5.1
2017-Dec-07 11:30N 39°30' W 075°34'2 4.6
2017-Dec-07 11:00N 39°32' W 075°33'2 4.6
2017-Dec-07 10:31N 39°34' W 075°33'2 4.6
2017-Dec-07 10:00N 39°36' W 075°34'2 3.9
2017-Dec-07 09:30N 39°38' W 075°34'2 4.0
2017-Dec-07 09:00N 39°40' W 075°32'2 3.9
2017-Dec-07 08:30N 39°42' W 075°31'2 3.1
2017-Dec-07 08:00N 39°43' W 075°30'1 1.8
2017-Dec-07 07:30N 39°44' W 075°29'0 0.1
2017-Dec-07 07:00N 39°44' W 075°29'2 3.8
2017-Dec-07 06:29N 39°43' W 075°32'0 0.0
2017-Dec-07 05:09N 39°43' W 075°32'0 0.0
2017-Dec-07 03:50N 39°43' W 075°32'0 0.2
2017-Dec-07 03:28N 39°43' W 075°32'1 1.9
2017-Dec-07 03:00N 39°43' W 075°31'3 6.8
2017-Dec-07 02:31N 39°40' W 075°32'3 6.6
2017-Dec-07 02:01N 39°37' W 075°35'3 6.3
2017-Dec-07 01:31N 39°34' W 075°33'5 9.5
2017-Dec-07 01:00N 39°33' W 075°40'4 9.0
2017-Dec-07 00:30N 39°32' W 075°45'4 7.1
2017-Dec-07 00:00N 39°32' W 075°50'4 8.4
2017-Dec-06 23:31N 39°30' W 075°55'4 8.2
2017-Dec-06 23:01N 39°27' W 075°59'1 1.1
2017-Dec-06 21:52N 39°26' W 075°60'0 0.2
2017-Dec-06 21:29N 39°26' W 075°60'0 0.4
2017-Dec-06 20:58N 39°26' W 076°00'  
2017-Dec-04 08:04N 39°19' W 076°13'0 0.0
2017-Dec-04 04:26N 39°19' W 076°13'0 0.4
2017-Dec-04 03:10N 39°19' W 076°12'0 0.0
2017-Dec-04 02:49N 39°19' W 076°12'0 0.0
2017-Dec-04 00:11N 39°19' W 076°12'0 0.8
2017-Dec-03 23:48N 39°20' W 076°12'0 0.2
2017-Dec-03 22:35N 39°20' W 076°12'0 0.4
2017-Dec-03 22:23N 39°20' W 076°12'0 0.0
2017-Dec-03 15:29N 39°19' W 076°12'0 0.1
2017-Dec-03 13:09N 39°19' W 076°13'0 0.0
2017-Dec-03 11:28N 39°19' W 076°13'0 0.0
2017-Dec-03 10:57N 39°19' W 076°13'0 0.4
2017-Dec-03 10:12N 39°19' W 076°12'0 0.8
2017-Dec-03 09:52N 39°19' W 076°13'0 0.0
2017-Dec-03 09:30N 39°19' W 076°13'0 0.1
2017-Dec-03 06:35N 39°19' W 076°12'0 0.0
2017-Dec-02 21:28N 39°20' W 076°12'0 0.1
2017-Dec-02 16:01N 39°19' W 076°12'0 0.9
2017-Dec-02 15:44N 39°19' W 076°13'0 0.0
2017-Dec-02 08:50N 39°19' W 076°13'0 0.0
2017-Dec-02 08:25N 39°19' W 076°13'0 0.1
2017-Dec-02 07:46N 39°19' W 076°13'0 0.0
2017-Dec-02 05:04N 39°19' W 076°13'0 0.0
2017-Dec-02 04:53N 39°19' W 076°13'0 0.0
2017-Dec-02 04:23N 39°19' W 076°13'0 0.0
2017-Dec-02 00:30N 39°19' W 076°13'0 0.0
2017-Dec-01 23:36N 39°19' W 076°13'0 0.0
2017-Dec-01 22:48N 39°19' W 076°13'0 0.0
2017-Dec-01 22:24N 39°19' W 076°13'0 0.0
2017-Dec-01 17:41N 39°19' W 076°13'1 6.4
2017-Dec-01 17:30N 39°20' W 076°12'3 6.5
2017-Dec-01 17:01N 39°22' W 076°08'6 6.6
2017-Dec-01 16:03N 39°25' W 076°01'0 6.7
2017-Dec-01 16:01N 39°25' W 076°01'1 2.2
2017-Dec-01 15:20N 39°27' W 075°60'0 0.1
2017-Dec-01 15:00N 39°27' W 075°60'0 0.3
2017-Dec-01 14:28N 39°27' W 075°59'0 0.0
2017-Dec-01 13:58N 39°27' W 075°59'0 0.0
2017-Dec-01 13:28N 39°27' W 075°59'0 0.0
2017-Dec-01 12:58N 39°27' W 075°59'0 0.0
2017-Dec-01 12:28N 39°27' W 075°59'0 0.0
2017-Dec-01 11:59N 39°27' W 075°59'0 0.0
2017-Dec-01 11:26N 39°27' W 075°59'0 0.0
2017-Dec-01 10:59N 39°27' W 075°59'0 0.0
2017-Dec-01 10:29N 39°27' W 075°59'0 0.0
2017-Dec-01 09:59N 39°27' W 075°59'0 0.0
2017-Dec-01 09:29N 39°27' W 075°59'0 0.0
2017-Dec-01 08:59N 39°27' W 075°59'0 0.0
2017-Dec-01 08:29N 39°27' W 075°59'0 0.0
2017-Dec-01 07:59N 39°27' W 075°59'0 0.0
2017-Dec-01 07:29N 39°27' W 075°59'0 0.0
2017-Dec-01 06:59N 39°27' W 075°59'0 0.0
2017-Dec-01 06:29N 39°27' W 075°59'0 0.0
2017-Dec-01 05:59N 39°27' W 075°59'0 0.0
2017-Dec-01 05:29N 39°27' W 075°59'  

Dump ship's entire track history